KCFV/CFV METAR and TAF weather

Enter ICAO airport designator
Station Type Date Time Source
KCFV METAR 2019/10/18 06:52 UTC NOAA

KCFV 180652Z AUTO 16004KT 10SM CLR 10/08 A2987 RMK AO2 SLP113 T01000078


Station Type Date Time Source
KCFV Decoded METAR 2019/10/18 06:52 UTC NOAA

COFFEYVILLE MUNICIPAL AIRPORT , KS, United States (KCFV) 37-05N 95-34W 225M
Oct 18, 2019 - 02:52 AM EDT / 2019.10.18 0652 UTC
Wind: from the SSE (160 degrees) at 5 MPH (4 KT):0
Visibility: 10 mile(s):0
Sky conditions: clear
Temperature: 50.0 F (10.0 C)
Dew Point: 46.0 F (7.8 C)
Relative Humidity: 86%
Pressure (altimeter): 29.87 in. Hg (1011 hPa)
ob: KCFV 180652Z AUTO 16004KT 10SM CLR 10/08 A2987 RMK AO2 SLP113 T01000078
cycle: 7

Station Type Date Time Source
KCFV TAF UTC NOAA

Error!

Example: see airport list